createdAt,value
2022-08-29T00:00:18.228Z,14.28
2022-08-29T00:01:15.570Z,14.28
2022-08-29T00:02:15.620Z,14.20
2022-08-29T00:03:15.475Z,14.26
2022-08-29T00:04:15.484Z,14.07
2022-08-29T00:05:15.382Z,14.11
2022-08-29T00:06:15.308Z,14.00
2022-08-29T00:07:15.296Z,14.05
2022-08-29T00:08:15.357Z,14.04
2022-08-29T00:09:15.179Z,13.99
2022-08-29T00:10:15.123Z,14.03
2022-08-29T00:11:15.053Z,14.03
2022-08-29T00:12:15.015Z,14.03
2022-08-29T00:13:14.985Z,14.05
2022-08-29T00:14:23.173Z,14.07
2022-08-29T00:15:14.866Z,13.99
2022-08-29T00:16:14.826Z,13.93
2022-08-29T00:17:14.750Z,13.99
2022-08-29T00:18:14.888Z,13.96
2022-08-29T00:19:14.668Z,14.03
2022-08-29T00:20:14.622Z,13.95
2022-08-29T00:21:14.559Z,13.99
2022-08-29T00:22:14.506Z,13.96
2022-08-29T00:23:14.455Z,13.96
2022-08-29T00:24:14.423Z,13.89
2022-08-29T00:25:14.360Z,13.89
2022-08-29T00:26:14.295Z,13.81
2022-08-29T00:27:14.247Z,13.87
2022-08-29T00:28:14.319Z,13.83
2022-08-29T00:29:14.160Z,13.83
2022-08-29T00:30:14.109Z,13.79
2022-08-29T00:31:14.087Z,13.75
2022-08-29T00:32:13.976Z,13.75
2022-08-29T00:33:13.934Z,13.81
2022-08-29T00:34:13.913Z,13.65
2022-08-29T00:35:13.851Z,13.65
2022-08-29T00:36:13.771Z,13.63
2022-08-29T00:37:13.721Z,13.57
2022-08-29T00:38:13.819Z,13.70
2022-08-29T00:39:13.653Z,13.65
2022-08-29T00:40:13.624Z,13.60
2022-08-29T00:41:13.524Z,13.74
2022-08-29T00:42:13.473Z,13.67
2022-08-29T00:43:13.449Z,13.68
2022-08-29T00:44:13.377Z,13.68
2022-08-29T00:45:13.330Z,13.68
2022-08-29T00:46:13.312Z,13.59
2022-08-29T00:47:13.244Z,13.53
2022-08-29T00:48:13.434Z,13.54
2022-08-29T00:49:13.116Z,13.57
2022-08-29T00:50:13.076Z,13.57
2022-08-29T00:51:12.996Z,13.53
2022-08-29T00:52:12.987Z,13.53
2022-08-29T00:53:12.909Z,13.52
2022-08-29T00:54:12.863Z,13.52
2022-08-29T00:55:12.826Z,13.54
2022-08-29T00:56:12.744Z,13.50
2022-08-29T00:57:12.725Z,13.54
2022-08-29T00:58:14.128Z,13.57
2022-08-29T00:59:12.584Z,13.54
2022-08-29T01:00:12.561Z,13.46
2022-08-29T01:01:12.569Z,13.46
2022-08-29T01:02:12.513Z,13.44
2022-08-29T01:03:12.396Z,13.35
2022-08-29T01:04:15.666Z,13.28
2022-08-29T01:05:12.314Z,13.28
2022-08-29T01:06:12.236Z,13.18
2022-08-29T01:07:12.187Z,13.30
2022-08-29T01:08:12.137Z,13.22
2022-08-29T01:09:12.064Z,13.15
2022-08-29T01:10:13.453Z,13.11
2022-08-29T01:11:11.975Z,13.13
2022-08-29T01:12:11.928Z,13.11
2022-08-29T01:13:11.941Z,13.16
2022-08-29T01:14:11.846Z,13.01
2022-08-29T01:15:11.771Z,13.04
2022-08-29T01:16:11.760Z,13.03
2022-08-29T01:17:11.656Z,12.98
2022-08-29T01:18:11.619Z,12.95
2022-08-29T01:19:11.588Z,12.97
2022-08-29T01:20:11.517Z,12.94
2022-08-29T01:21:11.438Z,12.91
2022-08-29T01:22:11.395Z,12.94
2022-08-29T01:23:11.353Z,12.87
2022-08-29T01:24:11.325Z,12.85
2022-08-29T01:25:11.265Z,12.80
2022-08-29T01:26:11.191Z,12.75
2022-08-29T01:27:11.136Z,12.79
2022-08-29T01:28:11.077Z,12.67
2022-08-29T01:29:11.083Z,12.67
2022-08-29T01:30:11.014Z,12.62
2022-08-29T01:31:10.975Z,12.57
2022-08-29T01:32:10.913Z,12.62
2022-08-29T01:33:10.836Z,12.62
2022-08-29T01:34:10.783Z,12.64
2022-08-29T01:35:10.754Z,12.60
2022-08-29T01:36:10.681Z,12.58
2022-08-29T01:37:10.617Z,12.65
2022-08-29T01:38:10.622Z,12.62
2022-08-29T01:39:10.550Z,12.62
2022-08-29T01:40:10.501Z,12.60
2022-08-29T01:41:10.408Z,12.62
2022-08-29T01:42:10.401Z,12.68
2022-08-29T01:43:10.314Z,12.73
2022-08-29T01:44:10.352Z,12.67
2022-08-29T01:45:10.368Z,12.72
2022-08-29T01:46:10.199Z,12.61
2022-08-29T01:47:10.095Z,12.67
2022-08-29T01:48:10.073Z,12.65
2022-08-29T01:49:10.032Z,12.61
2022-08-29T01:50:09.956Z,12.64
2022-08-29T01:51:19.302Z,12.67
2022-08-29T01:52:09.855Z,12.62
2022-08-29T01:53:09.823Z,12.61
2022-08-29T01:54:09.749Z,12.64
2022-08-29T01:55:09.704Z,12.68
2022-08-29T01:56:09.663Z,12.65
2022-08-29T01:57:12.785Z,12.60
2022-08-29T01:58:09.541Z,12.62
2022-08-29T01:59:09.517Z,12.61
2022-08-29T02:00:09.454Z,12.50
2022-08-29T02:01:09.431Z,12.55
2022-08-29T02:02:09.367Z,12.49
2022-08-29T02:03:09.310Z,12.55
2022-08-29T02:04:09.254Z,12.47
2022-08-29T02:05:09.184Z,12.53
2022-08-29T02:06:09.119Z,12.46
2022-08-29T02:07:12.506Z,12.53
2022-08-29T02:08:09.034Z,12.49
2022-08-29T02:09:11.354Z,12.53
2022-08-29T02:10:08.916Z,12.58
2022-08-29T02:11:08.846Z,12.53
2022-08-29T02:12:08.806Z,12.46
2022-08-29T02:13:08.779Z,12.39
2022-08-29T02:14:09.830Z,12.37
2022-08-29T02:15:08.656Z,12.40
2022-08-29T02:16:08.627Z,12.43
2022-08-29T02:17:08.559Z,12.40
2022-08-29T02:18:08.532Z,12.32
2022-08-29T02:19:08.438Z,12.29
2022-08-29T02:20:08.414Z,12.32
2022-08-29T02:21:08.320Z,12.36
2022-08-29T02:22:08.314Z,12.31
2022-08-29T02:23:21.864Z,12.35
2022-08-29T02:24:24.590Z,12.32
2022-08-29T02:25:08.164Z,12.39
2022-08-29T02:26:08.074Z,12.37
2022-08-29T02:27:08.766Z,12.43
2022-08-29T02:28:07.990Z,12.39
2022-08-29T02:29:07.903Z,12.49
2022-08-29T02:30:07.888Z,12.47
2022-08-29T02:31:07.877Z,12.47
2022-08-29T02:32:08.033Z,12.43
2022-08-29T02:33:07.705Z,12.49
2022-08-29T02:34:07.655Z,12.39
2022-08-29T02:35:07.630Z,12.46
2022-08-29T02:36:07.575Z,12.40
2022-08-29T02:37:07.508Z,12.40
2022-08-29T02:38:07.565Z,12.35
2022-08-29T02:39:07.396Z,12.29
2022-08-29T02:40:07.404Z,12.31
2022-08-29T02:41:09.349Z,12.29
2022-08-29T02:42:07.269Z,12.32
2022-08-29T02:43:07.187Z,12.28
2022-08-29T02:44:07.136Z,12.32
2022-08-29T02:45:07.113Z,12.32
2022-08-29T02:46:07.032Z,12.37
2022-08-29T02:47:07.020Z,12.45
2022-08-29T02:48:06.917Z,12.43
2022-08-29T02:49:06.886Z,12.40
2022-08-29T02:50:06.844Z,12.42
2022-08-29T02:51:06.765Z,12.32
2022-08-29T02:52:06.874Z,12.27
2022-08-29T02:53:06.690Z,12.15
2022-08-29T02:54:06.613Z,12.18
2022-08-29T02:55:06.589Z,12.07
2022-08-29T02:56:06.507Z,12.13
2022-08-29T02:57:06.447Z,12.15
2022-08-29T02:58:06.443Z,12.07
2022-08-29T02:59:06.349Z,12.07
2022-08-29T03:00:06.293Z,11.99
2022-08-29T03:01:06.278Z,11.97
2022-08-29T03:02:06.228Z,11.91
2022-08-29T03:03:06.125Z,11.99
2022-08-29T03:04:06.114Z,12.03
2022-08-29T03:05:06.047Z,12.07
2022-08-29T03:06:05.970Z,12.02
2022-08-29T03:07:05.956Z,12.13
2022-08-29T03:08:05.866Z,12.13
2022-08-29T03:09:05.801Z,12.18
2022-08-29T03:10:05.798Z,12.10
2022-08-29T03:11:05.712Z,12.04
2022-08-29T03:12:05.644Z,12.10
2022-08-29T03:13:05.635Z,12.09
2022-08-29T03:14:05.549Z,12.10
2022-08-29T03:15:05.510Z,12.20
2022-08-29T03:16:05.496Z,12.12
2022-08-29T03:17:05.404Z,12.13
2022-08-29T03:18:05.375Z,12.17
2022-08-29T03:19:05.279Z,12.07
2022-08-29T03:20:05.266Z,12.06
2022-08-29T03:21:05.173Z,12.00
2022-08-29T03:22:05.133Z,12.04
2022-08-29T03:23:05.109Z,12.12
2022-08-29T03:24:05.040Z,12.13
2022-08-29T03:25:04.974Z,12.03
2022-08-29T03:26:04.936Z,12.06
2022-08-29T03:27:04.902Z,11.99
2022-08-29T03:28:04.859Z,11.94
2022-08-29T03:29:04.783Z,12.02
2022-08-29T03:30:04.718Z,12.02
2022-08-29T03:31:04.695Z,11.87
2022-08-29T03:32:04.600Z,11.88
2022-08-29T03:33:06.866Z,11.94
2022-08-29T03:34:04.510Z,11.91
2022-08-29T03:35:04.437Z,11.91
2022-08-29T03:36:04.406Z,11.88
2022-08-29T03:37:04.332Z,11.90
2022-08-29T03:38:04.326Z,11.90
2022-08-29T03:39:04.250Z,11.90
2022-08-29T03:40:04.246Z,11.80
2022-08-29T03:41:04.179Z,11.77
2022-08-29T03:42:04.092Z,11.70
2022-08-29T03:43:04.090Z,11.72
2022-08-29T03:44:03.987Z,11.68
2022-08-29T03:45:03.937Z,11.68
2022-08-29T03:46:03.919Z,11.80
2022-08-29T03:47:03.848Z,11.72
2022-08-29T03:48:03.764Z,11.68
2022-08-29T03:49:03.714Z,11.72
2022-08-29T03:50:03.674Z,11.68
2022-08-29T03:51:03.622Z,11.69
2022-08-29T03:52:03.595Z,11.68
2022-08-29T03:53:03.505Z,11.62
2022-08-29T03:54:03.457Z,11.59
2022-08-29T03:55:03.432Z,11.55
2022-08-29T03:56:03.347Z,11.57
2022-08-29T03:57:03.325Z,11.62
2022-08-29T03:58:03.250Z,11.66
2022-08-29T03:59:03.176Z,11.65
2022-08-29T04:00:03.144Z,11.68
2022-08-29T04:01:03.094Z,11.72
2022-08-29T04:02:03.217Z,11.69
2022-08-29T04:03:03.049Z,11.73
2022-08-29T04:04:02.933Z,11.75
2022-08-29T04:05:07.357Z,11.80
2022-08-29T04:06:02.822Z,11.81
2022-08-29T04:07:02.793Z,11.72
2022-08-29T04:08:02.701Z,11.70
2022-08-29T04:09:02.646Z,11.66
2022-08-29T04:10:02.636Z,11.69
2022-08-29T04:11:02.570Z,11.63
2022-08-29T04:12:02.523Z,11.72
2022-08-29T04:13:02.474Z,11.62
2022-08-29T04:14:02.399Z,11.60
2022-08-29T04:15:02.352Z,11.60
2022-08-29T04:16:02.382Z,11.50
2022-08-29T04:17:02.221Z,11.51
2022-08-29T04:18:02.216Z,11.47
2022-08-29T04:19:02.134Z,11.63
2022-08-29T04:20:02.099Z,11.51
2022-08-29T04:21:02.015Z,11.51
2022-08-29T04:22:01.973Z,11.52
2022-08-29T04:23:01.952Z,11.51
2022-08-29T04:24:01.862Z,11.52
2022-08-29T04:25:01.828Z,11.51
2022-08-29T04:26:19.139Z,11.54
2022-08-29T04:27:01.694Z,11.50
2022-08-29T04:28:01.658Z,11.52
2022-08-29T04:29:01.642Z,11.59
2022-08-29T04:30:01.575Z,11.62
2022-08-29T04:31:01.506Z,11.59
2022-08-29T04:32:01.454Z,11.59
2022-08-29T04:33:01.416Z,11.52
2022-08-29T04:34:01.327Z,11.51
2022-08-29T04:35:01.313Z,11.48
2022-08-29T04:36:01.244Z,11.45
2022-08-29T04:37:01.204Z,11.54
2022-08-29T04:38:01.121Z,11.47
2022-08-29T04:39:01.073Z,11.51
2022-08-29T04:40:01.050Z,11.55
2022-08-29T04:41:00.996Z,11.59
2022-08-29T04:42:00.944Z,11.57
2022-08-29T04:43:00.862Z,11.60
2022-08-29T04:44:00.793Z,11.55
2022-08-29T04:45:00.763Z,11.55
2022-08-29T04:46:00.735Z,11.50
2022-08-29T04:47:00.679Z,11.51
2022-08-29T04:48:03.458Z,11.51
2022-08-29T04:49:04.012Z,11.48
2022-08-29T04:50:00.499Z,11.48
2022-08-29T04:51:00.434Z,11.51
2022-08-29T04:52:00.419Z,11.52
2022-08-29T04:53:00.363Z,11.57
2022-08-29T04:54:00.275Z,11.50
2022-08-29T04:55:00.239Z,11.47
2022-08-29T04:56:00.198Z,11.41
2022-08-29T04:57:00.108Z,11.43
2022-08-29T04:58:00.117Z,11.45
2022-08-29T04:59:00.024Z,11.41
2022-08-29T05:00:00.023Z,11.43
2022-08-29T05:00:59.906Z,11.43
2022-08-29T05:01:59.927Z,11.43
2022-08-29T05:02:59.858Z,11.40
2022-08-29T05:03:59.903Z,11.45
2022-08-29T05:04:59.709Z,11.45
2022-08-29T05:05:59.657Z,11.45
2022-08-29T05:06:59.574Z,11.47
2022-08-29T05:07:59.549Z,11.44
2022-08-29T05:09:00.193Z,11.48
2022-08-29T05:09:59.411Z,11.41
2022-08-29T05:10:59.375Z,11.48
2022-08-29T05:11:59.383Z,11.47
2022-08-29T05:12:59.296Z,11.44
2022-08-29T05:13:59.253Z,11.47
2022-08-29T05:14:59.199Z,11.45
2022-08-29T05:15:59.184Z,11.47
2022-08-29T05:16:59.048Z,11.55
2022-08-29T05:17:59.024Z,11.51
2022-08-29T05:18:58.986Z,11.59
2022-08-29T05:19:58.925Z,11.59
2022-08-29T05:20:58.857Z,11.57
2022-08-29T05:21:58.808Z,11.65
2022-08-29T05:22:58.762Z,11.69
2022-08-29T05:23:58.682Z,11.69
2022-08-29T05:24:58.674Z,11.69
2022-08-29T05:25:58.573Z,11.75
2022-08-29T05:26:58.518Z,11.73
2022-08-29T05:27:58.475Z,11.72
2022-08-29T05:28:58.463Z,11.70
2022-08-29T05:29:58.400Z,11.68
2022-08-29T05:30:58.395Z,11.70
2022-08-29T05:31:58.284Z,11.72
2022-08-29T05:32:58.196Z,11.83
2022-08-29T05:33:58.189Z,11.87
2022-08-29T05:34:58.118Z,11.81
2022-08-29T05:35:58.058Z,11.77
2022-08-29T05:36:58.029Z,11.87
2022-08-29T05:37:57.929Z,11.91
2022-08-29T05:38:57.924Z,11.94
2022-08-29T05:39:57.881Z,11.91
2022-08-29T05:40:57.798Z,11.97
2022-08-29T05:41:57.755Z,12.03
2022-08-29T05:42:57.682Z,12.09
2022-08-29T05:43:57.622Z,11.95
2022-08-29T05:44:57.605Z,12.10
2022-08-29T05:45:57.563Z,12.02
2022-08-29T05:46:57.477Z,12.02
2022-08-29T05:47:57.404Z,12.03
2022-08-29T05:48:57.393Z,12.04
2022-08-29T05:49:57.454Z,12.15
2022-08-29T05:50:57.260Z,12.10
2022-08-29T05:51:57.208Z,12.13
2022-08-29T05:52:57.168Z,12.17
2022-08-29T05:53:57.109Z,12.18
2022-08-29T05:54:57.077Z,12.21
2022-08-29T05:55:57.029Z,12.29
2022-08-29T05:56:56.948Z,12.28
2022-08-29T05:57:56.922Z,12.24
2022-08-29T05:58:56.855Z,12.28
2022-08-29T05:59:56.786Z,12.31
2022-08-29T06:00:56.718Z,12.35
2022-08-29T06:01:56.672Z,12.40
2022-08-29T06:02:56.748Z,12.40
2022-08-29T06:03:56.617Z,12.31
2022-08-29T06:04:56.536Z,12.39
2022-08-29T06:05:56.468Z,12.40
2022-08-29T06:06:56.431Z,12.39
2022-08-29T06:07:56.396Z,12.57
2022-08-29T06:08:56.305Z,12.50
2022-08-29T06:09:56.870Z,12.46
2022-08-29T06:10:56.206Z,12.55
2022-08-29T06:11:56.131Z,12.67
2022-08-29T06:12:56.129Z,12.60
2022-08-29T06:13:56.045Z,12.65
2022-08-29T06:14:56.028Z,12.60
2022-08-29T06:15:56.001Z,12.61
2022-08-29T06:16:55.899Z,12.62
2022-08-29T06:17:55.832Z,12.73
2022-08-29T06:18:55.875Z,12.75
2022-08-29T06:19:55.754Z,12.78
2022-08-29T06:20:55.688Z,12.79
2022-08-29T06:21:55.631Z,12.82
2022-08-29T06:22:55.582Z,12.83
2022-08-29T06:23:55.544Z,12.82
2022-08-29T06:24:55.474Z,12.85
2022-08-29T06:25:55.436Z,12.93
2022-08-29T06:26:55.393Z,12.95
2022-08-29T06:27:55.314Z,12.97
2022-08-29T06:28:55.258Z,12.95
2022-08-29T06:29:57.349Z,13.04
2022-08-29T06:30:55.173Z,12.98
2022-08-29T06:31:55.140Z,13.03
2022-08-29T06:32:55.071Z,13.03
2022-08-29T06:33:54.996Z,13.16
2022-08-29T06:34:54.947Z,13.19
2022-08-29T06:35:54.891Z,13.20
2022-08-29T06:36:54.865Z,13.20
2022-08-29T06:37:54.851Z,13.25
2022-08-29T06:38:54.754Z,13.28
2022-08-29T06:39:54.745Z,13.31
2022-08-29T06:40:54.634Z,13.35
2022-08-29T06:41:54.574Z,13.33
2022-08-29T06:42:54.529Z,13.42
2022-08-29T06:43:54.506Z,13.42
2022-08-29T06:44:54.427Z,13.35
2022-08-29T06:45:54.474Z,13.50
2022-08-29T06:46:54.324Z,13.50
2022-08-29T06:47:54.245Z,13.62
2022-08-29T06:48:54.205Z,13.54
2022-08-29T06:49:54.180Z,13.57
2022-08-29T06:50:54.150Z,13.70
2022-08-29T06:51:57.730Z,13.74
2022-08-29T06:52:55.656Z,13.72
2022-08-29T06:53:53.973Z,13.78
2022-08-29T06:54:53.909Z,13.72
2022-08-29T06:55:53.846Z,13.81
2022-08-29T06:56:53.797Z,13.86
2022-08-29T06:57:53.734Z,13.81
2022-08-29T06:58:53.731Z,13.87
2022-08-29T06:59:53.655Z,13.79
2022-08-29T07:00:53.584Z,13.86
2022-08-29T07:01:53.594Z,13.89
2022-08-29T07:02:53.561Z,13.93
2022-08-29T07:03:53.416Z,13.93
2022-08-29T07:04:53.383Z,13.93
2022-08-29T07:05:53.338Z,13.96
2022-08-29T07:06:53.293Z,13.90
2022-08-29T07:07:53.229Z,14.05
2022-08-29T07:08:55.641Z,14.10
2022-08-29T07:09:53.128Z,14.12
2022-08-29T07:10:53.064Z,14.14
2022-08-29T07:11:53.043Z,14.25
2022-08-29T07:12:52.959Z,14.20
2022-08-29T07:13:52.905Z,14.26
2022-08-29T07:14:52.877Z,14.30
2022-08-29T07:15:52.869Z,14.28
2022-08-29T07:16:52.777Z,14.30
2022-08-29T07:17:56.593Z,14.33
2022-08-29T07:18:52.643Z,14.43
2022-08-29T07:19:52.603Z,14.43
2022-08-29T07:20:52.550Z,14.44
2022-08-29T07:21:52.521Z,14.54
2022-08-29T07:22:52.462Z,14.59
2022-08-29T07:23:52.392Z,14.73
2022-08-29T07:24:52.346Z,14.60
2022-08-29T07:25:52.286Z,14.62
2022-08-29T07:26:52.262Z,14.82
2022-08-29T07:27:53.499Z,14.84
2022-08-29T07:28:52.138Z,14.79
2022-08-29T07:29:52.091Z,14.85
2022-08-29T07:30:52.063Z,14.89
2022-08-29T07:31:51.982Z,15.00
2022-08-29T07:32:51.948Z,15.02
2022-08-29T07:33:57.069Z,15.07
2022-08-29T07:34:55.796Z,15.18
2022-08-29T07:35:51.768Z,15.14
2022-08-29T07:36:51.742Z,15.24
2022-08-29T07:37:51.707Z,15.31
2022-08-29T07:38:51.622Z,15.39
2022-08-29T07:39:51.575Z,15.42
2022-08-29T07:40:51.523Z,15.52
2022-08-29T07:41:51.485Z,15.62
2022-08-29T07:42:52.385Z,15.65
2022-08-29T07:43:51.350Z,15.57
2022-08-29T07:44:51.331Z,15.72
2022-08-29T07:45:51.285Z,15.83
2022-08-29T07:46:51.245Z,15.82
2022-08-29T07:47:51.162Z,15.97
2022-08-29T07:48:51.104Z,15.97
2022-08-29T07:49:51.067Z,16.05
2022-08-29T07:50:51.015Z,16.20
2022-08-29T07:51:50.986Z,16.21
2022-08-29T07:53:00.424Z,16.21
2022-08-29T07:53:50.851Z,16.38
2022-08-29T07:54:50.804Z,16.39
2022-08-29T07:55:50.780Z,16.41
2022-08-29T07:56:50.706Z,16.56
2022-08-29T07:57:50.680Z,16.66
2022-08-29T07:58:50.595Z,16.74
2022-08-29T07:59:50.553Z,16.94
2022-08-29T08:00:50.491Z,17.05
2022-08-29T08:01:50.503Z,17.16
2022-08-29T08:02:50.433Z,17.29
2022-08-29T08:03:50.859Z,17.31
2022-08-29T08:04:52.434Z,17.48
2022-08-29T08:05:50.242Z,17.46
2022-08-29T08:06:50.199Z,17.59
2022-08-29T08:07:55.517Z,17.76
2022-08-29T08:08:50.118Z,17.86
2022-08-29T08:09:50.042Z,18.07
2022-08-29T08:10:52.199Z,18.43
2022-08-29T08:11:50.015Z,18.70
2022-08-29T08:12:49.912Z,19.09
2022-08-29T08:13:49.830Z,19.63
2022-08-29T08:14:49.794Z,20.10
2022-08-29T08:15:49.735Z,20.75
2022-08-29T08:16:49.734Z,21.27
2022-08-29T08:17:49.661Z,21.75
2022-08-29T08:18:49.585Z,22.39
2022-08-29T08:19:49.545Z,23.02
2022-08-29T08:20:49.494Z,23.44
2022-08-29T08:21:50.206Z,24.01
2022-08-29T08:22:49.416Z,24.38
2022-08-29T08:23:49.334Z,24.89
2022-08-29T08:24:49.320Z,25.36
2022-08-29T08:25:49.250Z,25.84
2022-08-29T08:26:49.205Z,26.26
2022-08-29T08:27:49.143Z,26.44
2022-08-29T08:28:49.123Z,26.75
2022-08-29T08:29:49.063Z,26.97
2022-08-29T08:30:49.026Z,27.18
2022-08-29T08:31:48.987Z,27.48
2022-08-29T08:32:54.054Z,27.92
2022-08-29T08:33:48.898Z,28.10
2022-08-29T08:34:48.846Z,28.23
2022-08-29T08:35:48.781Z,28.44
2022-08-29T08:36:48.753Z,28.64
2022-08-29T08:37:48.685Z,28.91
2022-08-29T08:38:48.647Z,29.04
2022-08-29T08:39:48.594Z,29.12
2022-08-29T08:40:48.549Z,29.29
2022-08-29T08:41:48.532Z,29.31
2022-08-29T08:42:48.456Z,29.13
2022-08-29T08:43:48.444Z,28.94
2022-08-29T08:44:48.372Z,28.94
2022-08-29T08:45:48.390Z,28.88
2022-08-29T08:46:48.278Z,28.84
2022-08-29T08:47:48.234Z,28.97
2022-08-29T08:48:48.212Z,28.98
2022-08-29T08:49:48.219Z,29.17
2022-08-29T08:50:52.427Z,29.16
2022-08-29T08:51:48.054Z,29.31
2022-08-29T08:52:48.019Z,29.36
2022-08-29T08:53:47.969Z,29.56
2022-08-29T08:54:47.970Z,29.75
2022-08-29T08:55:47.874Z,29.73
2022-08-29T08:56:47.830Z,29.60
2022-08-29T08:57:47.789Z,29.56
2022-08-29T08:58:47.743Z,29.56
2022-08-29T08:59:47.729Z,29.72
2022-08-29T09:00:47.753Z,29.82
2022-08-29T09:01:47.623Z,29.97
2022-08-29T09:02:47.686Z,30.21
2022-08-29T09:03:47.526Z,30.32
2022-08-29T09:04:47.513Z,30.21
2022-08-29T09:05:49.376Z,30.25
2022-08-29T09:06:47.384Z,30.28
2022-08-29T09:07:47.354Z,30.31
2022-08-29T09:08:47.318Z,30.21
2022-08-29T09:09:47.274Z,30.12
2022-08-29T09:10:47.256Z,30.16
2022-08-29T09:11:47.185Z,30.02
2022-08-29T09:12:49.786Z,30.03
2022-08-29T09:13:47.096Z,29.94
2022-08-29T09:14:47.063Z,29.87
2022-08-29T09:15:47.041Z,29.82
2022-08-29T09:16:47.027Z,29.87
2022-08-29T09:17:46.934Z,29.79
2022-08-29T09:18:52.543Z,29.75
2022-08-29T09:19:46.847Z,29.82
2022-08-29T09:20:46.799Z,29.75
2022-08-29T09:21:46.774Z,29.63
2022-08-29T09:22:46.715Z,29.75
2022-08-29T09:23:46.669Z,29.73
2022-08-29T09:24:46.642Z,29.65
2022-08-29T09:25:46.591Z,29.60
2022-08-29T09:26:46.576Z,29.71
2022-08-29T09:27:46.490Z,29.75
2022-08-29T09:28:46.481Z,29.78
2022-08-29T09:29:46.423Z,29.93
2022-08-29T09:30:46.397Z,29.82
2022-08-29T09:31:46.364Z,29.71
2022-08-29T09:32:46.283Z,29.51
2022-08-29T09:33:46.277Z,29.38
2022-08-29T09:35:07.350Z,29.32
2022-08-29T09:35:46.149Z,29.19
2022-08-29T09:36:47.789Z,29.13
2022-08-29T09:37:46.087Z,29.04
2022-08-29T09:38:46.036Z,29.14
2022-08-29T09:39:50.001Z,29.16
2022-08-29T09:40:45.988Z,29.10
2022-08-29T09:41:45.921Z,29.19
2022-08-29T09:42:45.887Z,29.17
2022-08-29T09:43:45.808Z,29.31
2022-08-29T09:44:45.802Z,29.53
2022-08-29T09:45:45.815Z,29.61
2022-08-29T09:46:45.801Z,29.73
2022-08-29T09:47:45.683Z,29.75
2022-08-29T09:48:45.610Z,29.95
2022-08-29T09:49:45.574Z,29.90
2022-08-29T09:50:45.548Z,29.73
2022-08-29T09:51:45.466Z,29.75
2022-08-29T09:52:45.464Z,29.84
2022-08-29T09:53:45.462Z,29.81
2022-08-29T09:54:45.382Z,29.94
2022-08-29T09:55:45.508Z,30.10
2022-08-29T09:56:45.280Z,30.15
2022-08-29T09:57:45.215Z,30.39
2022-08-29T09:58:45.194Z,30.51
2022-08-29T09:59:45.462Z,30.55
2022-08-29T10:00:45.198Z,30.59
2022-08-29T10:01:45.150Z,30.63
2022-08-29T10:02:45.119Z,30.59
2022-08-29T10:03:44.968Z,30.44
2022-08-29T10:04:44.941Z,30.23
2022-08-29T10:05:44.930Z,30.09
2022-08-29T10:06:49.480Z,29.97
2022-08-29T10:07:44.818Z,29.90
2022-08-29T10:08:44.774Z,29.90
2022-08-29T10:09:44.730Z,30.03
2022-08-29T10:10:44.695Z,30.10
2022-08-29T10:11:44.669Z,29.95
2022-08-29T10:12:44.608Z,29.91
2022-08-29T10:13:44.620Z,29.56
2022-08-29T10:14:48.167Z,28.86
2022-08-29T10:15:51.048Z,28.19
2022-08-29T10:16:44.491Z,27.95
2022-08-29T10:17:44.379Z,27.89
2022-08-29T10:18:44.390Z,27.96
2022-08-29T10:19:44.346Z,27.89
2022-08-29T10:20:44.273Z,28.07
2022-08-29T10:21:44.235Z,28.20
2022-08-29T10:22:44.220Z,28.07
2022-08-29T10:23:44.130Z,28.01
2022-08-29T10:24:44.116Z,27.98
2022-08-29T10:25:44.075Z,28.22
2022-08-29T10:26:44.052Z,28.26
2022-08-29T10:27:44.046Z,28.38
2022-08-29T10:28:43.949Z,28.33
2022-08-29T10:29:43.970Z,28.20
2022-08-29T10:30:43.876Z,28.35
2022-08-29T10:31:43.850Z,28.57
2022-08-29T10:32:43.768Z,28.60
2022-08-29T10:33:43.740Z,28.52
2022-08-29T10:34:43.719Z,28.62
2022-08-29T10:35:43.650Z,28.62
2022-08-29T10:36:43.609Z,28.62
2022-08-29T10:37:43.565Z,28.70
2022-08-29T10:38:43.537Z,28.76
2022-08-29T10:39:43.507Z,28.88
2022-08-29T10:40:43.697Z,28.66
2022-08-29T10:41:47.079Z,28.62
2022-08-29T10:42:43.354Z,28.47
2022-08-29T10:43:43.293Z,28.56
2022-08-29T10:44:43.292Z,28.49
2022-08-29T10:45:43.312Z,28.52
2022-08-29T10:46:43.211Z,28.56
2022-08-29T10:47:43.174Z,28.42
2022-08-29T10:48:43.123Z,28.38
2022-08-29T10:49:44.909Z,28.22
2022-08-29T10:50:45.004Z,27.93
2022-08-29T10:51:42.986Z,27.85
2022-08-29T10:52:42.937Z,27.63
2022-08-29T10:53:42.879Z,27.65
2022-08-29T10:54:42.878Z,27.87
2022-08-29T10:55:42.808Z,28.22
2022-08-29T10:56:42.771Z,28.52
2022-08-29T10:57:42.727Z,29.01
2022-08-29T10:58:42.756Z,29.31
2022-08-29T10:59:42.695Z,29.51
2022-08-29T11:00:42.637Z,29.66
2022-08-29T11:01:42.616Z,30.02
2022-08-29T11:02:42.522Z,30.40
2022-08-29T11:03:42.484Z,30.61
2022-08-29T11:04:42.459Z,30.85
2022-08-29T11:05:42.385Z,31.06
2022-08-29T11:06:42.372Z,31.21
2022-08-29T11:07:42.314Z,31.34
2022-08-29T11:08:42.250Z,31.27
2022-08-29T11:09:42.250Z,31.03
2022-08-29T11:10:42.197Z,30.99
2022-08-29T11:11:42.163Z,31.00
2022-08-29T11:12:42.094Z,31.18
2022-08-29T11:13:42.049Z,31.03
2022-08-29T11:14:42.044Z,31.02
2022-08-29T11:15:41.973Z,31.10
2022-08-29T11:16:41.973Z,31.02
2022-08-29T11:17:41.889Z,31.24
2022-08-29T11:18:41.888Z,31.42
2022-08-29T11:19:41.834Z,31.47
2022-08-29T11:20:41.778Z,31.37
2022-08-29T11:21:41.721Z,31.18
2022-08-29T11:22:41.698Z,31.00
2022-08-29T11:23:41.673Z,30.83
2022-08-29T11:24:45.225Z,30.63
2022-08-29T11:25:41.559Z,30.43
2022-08-29T11:26:41.531Z,30.10
2022-08-29T11:27:41.515Z,30.02
2022-08-29T11:29:41.424Z,30.13
2022-08-29T11:30:43.746Z,30.03
2022-08-29T11:31:41.400Z,29.79
2022-08-29T11:32:41.268Z,29.84
2022-08-29T11:33:41.244Z,29.72
2022-08-29T11:34:41.235Z,29.66
2022-08-29T11:35:41.151Z,29.47
2022-08-29T11:36:41.227Z,29.36
2022-08-29T11:37:41.083Z,29.27
2022-08-29T11:38:41.045Z,29.41
2022-08-29T11:39:41.002Z,29.61
2022-08-29T11:40:48.741Z,29.56
2022-08-29T11:41:40.993Z,29.66
2022-08-29T11:42:56.227Z,29.59
2022-08-29T11:43:40.856Z,29.71
2022-08-29T11:44:40.792Z,29.95
2022-08-29T11:45:40.735Z,30.09
2022-08-29T11:46:40.798Z,30.18
2022-08-29T11:47:41.431Z,30.35
2022-08-29T11:48:40.652Z,30.50
2022-08-29T11:49:40.597Z,30.68
2022-08-29T11:50:40.587Z,30.53
2022-08-29T11:51:40.505Z,30.46
2022-08-29T11:52:40.452Z,30.32
2022-08-29T11:53:40.424Z,30.37
2022-08-29T11:54:40.409Z,30.34
2022-08-29T11:55:40.327Z,30.46
2022-08-29T11:56:40.353Z,30.10
2022-08-29T11:57:40.277Z,29.93
2022-08-29T11:58:40.204Z,29.73
2022-08-29T11:59:40.204Z,29.84
2022-08-29T12:00:40.135Z,29.90
2022-08-29T12:01:40.140Z,29.39
2022-08-29T12:02:40.093Z,29.19
2022-08-29T12:03:40.054Z,29.10
2022-08-29T12:04:40.024Z,28.82
2022-08-29T12:05:39.960Z,28.72
2022-08-29T12:06:39.894Z,28.56
2022-08-29T12:07:39.843Z,28.52
2022-08-29T12:08:39.791Z,28.56
2022-08-29T12:09:39.755Z,28.67
2022-08-29T12:10:39.813Z,28.70
2022-08-29T12:11:39.682Z,28.67
2022-08-29T12:12:39.685Z,28.59
2022-08-29T12:13:39.606Z,28.49
2022-08-29T12:14:39.563Z,28.37
2022-08-29T12:15:39.607Z,28.25
2022-08-29T12:16:39.510Z,28.20
2022-08-29T12:18:00.323Z,28.26
2022-08-29T12:18:39.397Z,28.44
2022-08-29T12:19:39.355Z,28.51
2022-08-29T12:20:39.377Z,28.64
2022-08-29T12:21:39.273Z,28.84
2022-08-29T12:22:39.234Z,29.01
2022-08-29T12:23:39.190Z,29.19
2022-08-29T12:24:39.145Z,29.35
2022-08-29T12:25:39.135Z,29.61
2022-08-29T12:26:39.067Z,29.97
2022-08-29T12:27:39.012Z,30.02
2022-08-29T12:28:39.001Z,30.21
2022-08-29T12:29:43.765Z,30.21
2022-08-29T12:30:38.904Z,30.25
2022-08-29T12:31:40.267Z,30.61
2022-08-29T12:32:40.083Z,30.77
2022-08-29T12:33:38.775Z,30.68
2022-08-29T12:34:38.748Z,30.57
2022-08-29T12:35:38.706Z,30.59
2022-08-29T12:36:38.678Z,30.70
2022-08-29T12:37:38.613Z,30.83
2022-08-29T12:38:42.018Z,30.90
2022-08-29T12:39:38.530Z,31.06
2022-08-29T12:40:38.558Z,31.17
2022-08-29T12:41:39.229Z,31.05
2022-08-29T12:42:38.408Z,31.02
2022-08-29T12:43:38.364Z,30.96
2022-08-29T12:44:38.323Z,30.88
2022-08-29T12:45:38.270Z,30.72
2022-08-29T12:46:38.297Z,30.68
2022-08-29T12:47:38.908Z,30.44
2022-08-29T12:48:38.147Z,30.35
2022-08-29T12:49:38.128Z,30.37
2022-08-29T12:50:38.106Z,30.24
2022-08-29T12:51:38.065Z,30.15
2022-08-29T12:52:37.995Z,30.47